Terminal Aerodrome Forecast
Issued by NWS

Home | Current Version | Previous Version | Graphics & Text | Print | Product List | Glossary On
Versions: 1 2 3 4 5 6 7 8 9 10 11 12 13 14 15 16 17 18 19 20 21
708
FTUS43 KLOT 202335
TAFDPA
TAF
KDPA 202335Z 2100/2124 20015G25KT P6SM BKN250 WS020/22055KT
     FM210700 22013KT P6SM BKN150 WS020/25040KT
     FM211400 30015G25KT P6SM BKN050=

USA.gov is the U.S. government's official web portal to all federal, state and local government web resources and services.